Rechercher aéroport 
image banner adimage banner adimage banner ad
image banner ad

KTRK - Truckee-Tahoe

Situé à Truckee, United States

ICAO - TRK, IATA - TKF

Données fournies par Airmate  

Information générale

Coordonnées: N39°19'12" W120°8'22"
Élévation : 5904 feet MSL.
Variation magnétique : 14° East
Voir autres Aéroports à California

Données opérationnelles

Special qualification required
Heure actuelle UTC:
Heure actuelle locale:
Météo
METAR: KTRK 262145Z AUTO 36012G25KT 02SM VCTS SCT025 SCT031 BKN043 25/10 A3013 FU RMK VIS 3 1/2/V5 FU SCT025 SCT031 BKN043 VCLTG AND LTG DSNT ALQDS
TAF: KTRK 262156Z 2622/2718 28012KT 4SM FU HZ VCTS BKN025 BKN060CB TEMPO 2622/2702 VRB20G30KT 2SM -TSRA FU BKN025CB OVC050 FM270400 VRB03KT 6SM FU HZ VCSH SCT050 BKN100 FM270900 00000KT P6SM BKN120
Voir NOTAMs / SUP AIP / TFR affectant cet aéroport [VIEW]
Fréquences de communication: [VIEW]

Pistes:

Identifiant RWYQFULongueur (ft)Largeur (ft)SurfaceLDA (ft)
0230°465475ASPH
20210°465475ASPH
11120°7001100ASPH
29300°7001100ASPH

Coordonnées de l'aéroport

Adresse: Truckee United States

Autres services d'aviation

Écoles de pilotage

Soar Truckee, Inc.

Soar Truckee, Inc.
info@soartruckee.com+1(530)587-6702

Sierra Aero

Sierra Aero
info@flytruckee.com+1(530)359-8751

Pacific North Helicopters

Pacific North Helicopters
sindre@pnh-us.com+1(530)214-0711

Vue satellite de KTRK